sensor_id;sensor_type;location;lat;lon;timestamp;temperature;humidity
25366;DHT22;13315;48.274;-1.900;2022-11-30T00:01:13;14.40;76.50
25366;DHT22;13315;48.274;-1.900;2022-11-30T00:03:39;14.40;76.50
25366;DHT22;13315;48.274;-1.900;2022-11-30T00:06:07;14.40;76.50
25366;DHT22;13315;48.274;-1.900;2022-11-30T00:08:33;14.40;76.50
25366;DHT22;13315;48.274;-1.900;2022-11-30T00:10:59;14.40;76.40
25366;DHT22;13315;48.274;-1.900;2022-11-30T00:13:25;14.40;76.40
25366;DHT22;13315;48.274;-1.900;2022-11-30T00:15:51;14.40;76.50
25366;DHT22;13315;48.274;-1.900;2022-11-30T00:18:17;14.40;76.40
25366;DHT22;13315;48.274;-1.900;2022-11-30T00:20:45;14.40;76.50
25366;DHT22;13315;48.274;-1.900;2022-11-30T00:23:11;14.40;76.40
25366;DHT22;13315;48.274;-1.900;2022-11-30T00:25:36;14.40;76.50
25366;DHT22;13315;48.274;-1.900;2022-11-30T00:28:02;14.30;76.40
25366;DHT22;13315;48.274;-1.900;2022-11-30T00:30:28;14.40;76.30
25366;DHT22;13315;48.274;-1.900;2022-11-30T00:32:58;14.40;76.30
25366;DHT22;13315;48.274;-1.900;2022-11-30T00:35:23;14.40;76.20
25366;DHT22;13315;48.274;-1.900;2022-11-30T00:37:49;14.40;76.30
25366;DHT22;13315;48.274;-1.900;2022-11-30T00:40:15;14.40;76.30
25366;DHT22;13315;48.274;-1.900;2022-11-30T00:42:41;14.40;76.20
25366;DHT22;13315;48.274;-1.900;2022-11-30T00:45:07;14.40;76.20
25366;DHT22;13315;48.274;-1.900;2022-11-30T00:47:33;14.40;76.20
25366;DHT22;13315;48.274;-1.900;2022-11-30T00:49:58;14.40;76.20
25366;DHT22;13315;48.274;-1.900;2022-11-30T00:52:24;14.40;76.20
25366;DHT22;13315;48.274;-1.900;2022-11-30T00:54:50;14.40;76.20
25366;DHT22;13315;48.274;-1.900;2022-11-30T00:57:16;14.40;76.20
25366;DHT22;13315;48.274;-1.900;2022-11-30T00:59:41;14.30;76.20
25366;DHT22;13315;48.274;-1.900;2022-11-30T01:02:08;14.30;76.20
25366;DHT22;13315;48.274;-1.900;2022-11-30T01:04:34;14.30;76.30
25366;DHT22;13315;48.274;-1.900;2022-11-30T01:07:00;14.30;76.20
25366;DHT22;13315;48.274;-1.900;2022-11-30T01:09:25;14.40;76.10
25366;DHT22;13315;48.274;-1.900;2022-11-30T01:11:51;14.30;76.00
25366;DHT22;13315;48.274;-1.900;2022-11-30T01:14:17;14.30;76.10
25366;DHT22;13315;48.274;-1.900;2022-11-30T01:16:42;14.40;76.10
25366;DHT22;13315;48.274;-1.900;2022-11-30T01:19:08;14.30;76.00
25366;DHT22;13315;48.274;-1.900;2022-11-30T01:21:34;14.30;76.00
25366;DHT22;13315;48.274;-1.900;2022-11-30T01:24:00;14.30;76.00
25366;DHT22;13315;48.274;-1.900;2022-11-30T01:26:25;14.30;75.90
25366;DHT22;13315;48.274;-1.900;2022-11-30T01:28:52;14.30;76.00
25366;DHT22;13315;48.274;-1.900;2022-11-30T01:31:19;14.30;76.00
25366;DHT22;13315;48.274;-1.900;2022-11-30T01:33:53;14.30;76.60
25366;DHT22;13315;48.274;-1.900;2022-11-30T01:36:21;14.30;76.00
25366;DHT22;13315;48.274;-1.900;2022-11-30T01:38:52;14.30;76.00
25366;DHT22;13315;48.274;-1.900;2022-11-30T01:41:30;14.30;75.90
25366;DHT22;13315;48.274;-1.900;2022-11-30T01:47:06;14.30;75.90
25366;DHT22;13315;48.274;-1.900;2022-11-30T01:49:38;14.30;75.90
25366;DHT22;13315;48.274;-1.900;2022-11-30T01:52:26;14.30;75.90
25366;DHT22;13315;48.274;-1.900;2022-11-30T01:57:50;14.30;75.80
25366;DHT22;13315;48.274;-1.900;2022-11-30T02:00:17;14.30;75.90
25366;DHT22;13315;48.274;-1.900;2022-11-30T02:05:20;14.30;76.00
25366;DHT22;13315;48.274;-1.900;2022-11-30T02:07:46;14.30;76.00
25366;DHT22;13315;48.274;-1.900;2022-11-30T02:10:17;14.30;75.90
25366;DHT22;13315;48.274;-1.900;2022-11-30T02:15:30;14.30;75.80
25366;DHT22;13315;48.274;-1.900;2022-11-30T02:18:13;14.30;75.70
25366;DHT22;13315;48.274;-1.900;2022-11-30T02:23:19;14.30;75.70
25366;DHT22;13315;48.274;-1.900;2022-11-30T02:31:19;14.30;75.80
25366;DHT22;13315;48.274;-1.900;2022-11-30T02:33:46;14.30;75.90
25366;DHT22;13315;48.274;-1.900;2022-11-30T02:36:13;14.20;75.80
25366;DHT22;13315;48.274;-1.900;2022-11-30T02:38:40;14.30;75.80
25366;DHT22;13315;48.274;-1.900;2022-11-30T02:41:06;14.30;75.80
25366;DHT22;13315;48.274;-1.900;2022-11-30T02:43:33;14.30;75.80
25366;DHT22;13315;48.274;-1.900;2022-11-30T02:46:18;14.30;75.70
25366;DHT22;13315;48.274;-1.900;2022-11-30T02:51:49;14.30;75.70
25366;DHT22;13315;48.274;-1.900;2022-11-30T02:54:17;14.30;75.60
25366;DHT22;13315;48.274;-1.900;2022-11-30T02:56:43;14.30;75.70
25366;DHT22;13315;48.274;-1.900;2022-11-30T02:59:09;14.30;75.80
25366;DHT22;13315;48.274;-1.900;2022-11-30T03:01:34;14.20;75.70
25366;DHT22;13315;48.274;-1.900;2022-11-30T03:04:00;14.20;75.80
25366;DHT22;13315;48.274;-1.900;2022-11-30T03:06:26;14.20;75.80
25366;DHT22;13315;48.274;-1.900;2022-11-30T03:08:52;14.20;75.80
25366;DHT22;13315;48.274;-1.900;2022-11-30T03:11:18;14.20;75.80
25366;DHT22;13315;48.274;-1.900;2022-11-30T03:13:43;14.20;75.80
25366;DHT22;13315;48.274;-1.900;2022-11-30T03:16:11;14.30;75.80
25366;DHT22;13315;48.274;-1.900;2022-11-30T03:18:37;14.20;75.70
25366;DHT22;13315;48.274;-1.900;2022-11-30T03:21:08;14.30;75.70
25366;DHT22;13315;48.274;-1.900;2022-11-30T03:23:34;14.20;75.70
25366;DHT22;13315;48.274;-1.900;2022-11-30T03:26:00;14.20;75.70
25366;DHT22;13315;48.274;-1.900;2022-11-30T03:28:26;14.20;75.80
25366;DHT22;13315;48.274;-1.900;2022-11-30T03:30:52;14.20;75.70
25366;DHT22;13315;48.274;-1.900;2022-11-30T03:33:18;14.20;75.70
25366;DHT22;13315;48.274;-1.900;2022-11-30T03:35:44;14.20;75.70
25366;DHT22;13315;48.274;-1.900;2022-11-30T03:38:10;14.20;75.70
25366;DHT22;13315;48.274;-1.900;2022-11-30T03:40:36;14.20;75.60
25366;DHT22;13315;48.274;-1.900;2022-11-30T03:43:02;14.20;75.60
25366;DHT22;13315;48.274;-1.900;2022-11-30T03:45:28;14.20;75.60
25366;DHT22;13315;48.274;-1.900;2022-11-30T03:47:53;14.20;75.60
25366;DHT22;13315;48.274;-1.900;2022-11-30T03:50:19;14.20;75.50
25366;DHT22;13315;48.274;-1.900;2022-11-30T03:52:45;14.20;75.60
25366;DHT22;13315;48.274;-1.900;2022-11-30T03:55:11;14.20;75.60
25366;DHT22;13315;48.274;-1.900;2022-11-30T03:57:36;14.20;75.70
25366;DHT22;13315;48.274;-1.900;2022-11-30T04:00:04;14.20;75.70
25366;DHT22;13315;48.274;-1.900;2022-11-30T04:02:31;14.20;75.60
25366;DHT22;13315;48.274;-1.900;2022-11-30T04:04:57;14.20;75.70
25366;DHT22;13315;48.274;-1.900;2022-11-30T04:07:22;14.20;75.70
25366;DHT22;13315;48.274;-1.900;2022-11-30T04:09:48;14.20;75.60
25366;DHT22;13315;48.274;-1.900;2022-11-30T04:12:14;14.20;75.50
25366;DHT22;13315;48.274;-1.900;2022-11-30T04:14:40;14.20;75.50
25366;DHT22;13315;48.274;-1.900;2022-11-30T04:17:05;14.20;75.50
25366;DHT22;13315;48.274;-1.900;2022-11-30T04:19:31;14.20;75.60
25366;DHT22;13315;48.274;-1.900;2022-11-30T04:21:57;14.20;75.60
25366;DHT22;13315;48.274;-1.900;2022-11-30T04:24:23;14.20;75.60
25366;DHT22;13315;48.274;-1.900;2022-11-30T04:26:48;14.20;75.70
25366;DHT22;13315;48.274;-1.900;2022-11-30T04:29:14;14.20;75.70
25366;DHT22;13315;48.274;-1.900;2022-11-30T04:31:40;14.20;75.50
25366;DHT22;13315;48.274;-1.900;2022-11-30T04:34:06;14.20;75.50
25366;DHT22;13315;48.274;-1.900;2022-11-30T04:36:31;14.20;75.50
25366;DHT22;13315;48.274;-1.900;2022-11-30T04:38:57;14.20;76.10
25366;DHT22;13315;48.274;-1.900;2022-11-30T04:41:23;14.20;75.50
25366;DHT22;13315;48.274;-1.900;2022-11-30T04:43:49;14.20;75.50
25366;DHT22;13315;48.274;-1.900;2022-11-30T04:46:14;14.20;75.50
25366;DHT22;13315;48.274;-1.900;2022-11-30T04:48:40;14.20;75.50
25366;DHT22;13315;48.274;-1.900;2022-11-30T04:51:07;14.20;75.50
25366;DHT22;13315;48.274;-1.900;2022-11-30T04:53:34;14.20;75.50
25366;DHT22;13315;48.274;-1.900;2022-11-30T04:56:07;14.10;75.40
25366;DHT22;13315;48.274;-1.900;2022-11-30T04:58:33;14.10;75.50
25366;DHT22;13315;48.274;-1.900;2022-11-30T05:00:58;14.20;75.50
25366;DHT22;13315;48.274;-1.900;2022-11-30T05:03:24;14.10;75.40
25366;DHT22;13315;48.274;-1.900;2022-11-30T05:05:50;14.10;75.40
25366;DHT22;13315;48.274;-1.900;2022-11-30T05:08:16;14.20;75.50
25366;DHT22;13315;48.274;-1.900;2022-11-30T05:10:41;14.10;75.40
25366;DHT22;13315;48.274;-1.900;2022-11-30T05:13:07;14.10;75.50
25366;DHT22;13315;48.274;-1.900;2022-11-30T05:15:33;14.10;75.40
25366;DHT22;13315;48.274;-1.900;2022-11-30T05:18:00;14.10;75.40
25366;DHT22;13315;48.274;-1.900;2022-11-30T05:20:29;14.10;75.40
25366;DHT22;13315;48.274;-1.900;2022-11-30T05:22:56;14.10;75.50
25366;DHT22;13315;48.274;-1.900;2022-11-30T05:25:21;14.10;75.40
25366;DHT22;13315;48.274;-1.900;2022-11-30T05:27:47;14.10;75.40
25366;DHT22;13315;48.274;-1.900;2022-11-30T05:30:13;14.10;75.40
25366;DHT22;13315;48.274;-1.900;2022-11-30T05:32:39;14.10;75.40
25366;DHT22;13315;48.274;-1.900;2022-11-30T05:35:05;14.10;75.30
25366;DHT22;13315;48.274;-1.900;2022-11-30T05:37:31;14.10;75.30
25366;DHT22;13315;48.274;-1.900;2022-11-30T05:39:56;14.10;75.30
25366;DHT22;13315;48.274;-1.900;2022-11-30T05:42:22;14.10;75.30
25366;DHT22;13315;48.274;-1.900;2022-11-30T05:44:48;14.10;75.40
25366;DHT22;13315;48.274;-1.900;2022-11-30T05:47:14;14.10;75.40
25366;DHT22;13315;48.274;-1.900;2022-11-30T05:49:40;14.10;75.40
25366;DHT22;13315;48.274;-1.900;2022-11-30T05:52:05;14.10;75.40
25366;DHT22;13315;48.274;-1.900;2022-11-30T05:54:32;14.10;75.40
25366;DHT22;13315;48.274;-1.900;2022-11-30T05:56:58;14.10;75.40
25366;DHT22;13315;48.274;-1.900;2022-11-30T05:59:24;14.10;75.30
25366;DHT22;13315;48.274;-1.900;2022-11-30T06:01:53;14.10;75.30
25366;DHT22;13315;48.274;-1.900;2022-11-30T06:04:19;14.10;75.20
25366;DHT22;13315;48.274;-1.900;2022-11-30T06:06:46;14.10;75.30
25366;DHT22;13315;48.274;-1.900;2022-11-30T06:09:12;14.10;75.30
25366;DHT22;13315;48.274;-1.900;2022-11-30T06:11:38;14.00;75.40
25366;DHT22;13315;48.274;-1.900;2022-11-30T06:14:04;14.10;75.30
25366;DHT22;13315;48.274;-1.900;2022-11-30T06:16:30;14.10;75.30
25366;DHT22;13315;48.274;-1.900;2022-11-30T06:18:55;14.00;75.40
25366;DHT22;13315;48.274;-1.900;2022-11-30T06:21:21;14.00;75.40
25366;DHT22;13315;48.274;-1.900;2022-11-30T06:23:47;14.00;75.30
25366;DHT22;13315;48.274;-1.900;2022-11-30T06:26:12;14.00;75.30
25366;DHT22;13315;48.274;-1.900;2022-11-30T06:28:38;14.00;75.40
25366;DHT22;13315;48.274;-1.900;2022-11-30T06:31:06;14.00;75.40
25366;DHT22;13315;48.274;-1.900;2022-11-30T06:33:32;14.00;75.40
25366;DHT22;13315;48.274;-1.900;2022-11-30T06:35:59;14.00;75.40
25366;DHT22;13315;48.274;-1.900;2022-11-30T06:38:24;14.00;75.40
25366;DHT22;13315;48.274;-1.900;2022-11-30T06:40:51;14.00;75.40
25366;DHT22;13315;48.274;-1.900;2022-11-30T06:43:17;14.00;75.40
25366;DHT22;13315;48.274;-1.900;2022-11-30T06:45:43;14.00;75.30
25366;DHT22;13315;48.274;-1.900;2022-11-30T06:48:10;14.00;75.30
25366;DHT22;13315;48.274;-1.900;2022-11-30T06:50:36;14.00;75.30
25366;DHT22;13315;48.274;-1.900;2022-11-30T06:53:02;14.00;75.30
25366;DHT22;13315;48.274;-1.900;2022-11-30T06:55:29;14.00;75.20
25366;DHT22;13315;48.274;-1.900;2022-11-30T06:58:05;14.00;75.30
25366;DHT22;13315;48.274;-1.900;2022-11-30T07:00:31;14.00;75.30
25366;DHT22;13315;48.274;-1.900;2022-11-30T07:02:56;14.00;75.40
25366;DHT22;13315;48.274;-1.900;2022-11-30T07:05:22;14.00;75.30
25366;DHT22;13315;48.274;-1.900;2022-11-30T07:07:48;14.00;75.30
25366;DHT22;13315;48.274;-1.900;2022-11-30T07:10:13;14.00;75.30
25366;DHT22;13315;48.274;-1.900;2022-11-30T07:12:39;14.00;75.20
25366;DHT22;13315;48.274;-1.900;2022-11-30T07:15:05;14.00;75.10
25366;DHT22;13315;48.274;-1.900;2022-11-30T07:17:31;14.00;75.20
25366;DHT22;13315;48.274;-1.900;2022-11-30T07:19:58;14.00;75.20
25366;DHT22;13315;48.274;-1.900;2022-11-30T07:22:23;14.00;75.30
25366;DHT22;13315;48.274;-1.900;2022-11-30T07:24:49;14.00;75.20
25366;DHT22;13315;48.274;-1.900;2022-11-30T07:27:33;14.00;75.30
25366;DHT22;13315;48.274;-1.900;2022-11-30T07:29:59;14.00;75.30
25366;DHT22;13315;48.274;-1.900;2022-11-30T07:32:25;14.00;75.30
25366;DHT22;13315;48.274;-1.900;2022-11-30T07:34:50;13.90;75.40
25366;DHT22;13315;48.274;-1.900;2022-11-30T07:37:16;13.90;75.40
25366;DHT22;13315;48.274;-1.900;2022-11-30T07:39:42;13.90;75.40
25366;DHT22;13315;48.274;-1.900;2022-11-30T07:42:08;13.90;75.40
25366;DHT22;13315;48.274;-1.900;2022-11-30T07:44:33;13.90;75.40
25366;DHT22;13315;48.274;-1.900;2022-11-30T07:46:59;13.90;75.40
25366;DHT22;13315;48.274;-1.900;2022-11-30T07:49:25;13.90;75.30
25366;DHT22;13315;48.274;-1.900;2022-11-30T07:51:51;13.90;75.40
25366;DHT22;13315;48.274;-1.900;2022-11-30T07:54:17;13.90;75.40
25366;DHT22;13315;48.274;-1.900;2022-11-30T07:56:42;13.90;75.40
25366;DHT22;13315;48.274;-1.900;2022-11-30T07:59:08;13.90;75.40
25366;DHT22;13315;48.274;-1.900;2022-11-30T08:01:34;13.90;75.50
25366;DHT22;13315;48.274;-1.900;2022-11-30T08:04:00;13.90;75.40
25366;DHT22;13315;48.274;-1.900;2022-11-30T08:06:28;13.90;75.40
25366;DHT22;13315;48.274;-1.900;2022-11-30T08:08:57;13.90;75.50
25366;DHT22;13315;48.274;-1.900;2022-11-30T08:11:27;13.90;75.50
25366;DHT22;13315;48.274;-1.900;2022-11-30T08:13:53;13.90;75.40
25366;DHT22;13315;48.274;-1.900;2022-11-30T08:16:21;13.90;75.50
25366;DHT22;13315;48.274;-1.900;2022-11-30T08:18:48;13.90;75.40
25366;DHT22;13315;48.274;-1.900;2022-11-30T08:21:16;13.90;75.40
25366;DHT22;13315;48.274;-1.900;2022-11-30T08:23:47;13.90;75.30
25366;DHT22;13315;48.274;-1.900;2022-11-30T08:26:19;13.90;75.40
25366;DHT22;13315;48.274;-1.900;2022-11-30T08:28:46;13.90;75.40
25366;DHT22;13315;48.274;-1.900;2022-11-30T08:31:18;13.90;75.40
25366;DHT22;13315;48.274;-1.900;2022-11-30T08:33:44;13.90;75.40
25366;DHT22;13315;48.274;-1.900;2022-11-30T08:36:14;13.80;75.30
25366;DHT22;13315;48.274;-1.900;2022-11-30T08:38:41;13.80;75.40
25366;DHT22;13315;48.274;-1.900;2022-11-30T08:41:09;13.80;75.50
25366;DHT22;13315;48.274;-1.900;2022-11-30T08:43:35;13.80;75.30
25366;DHT22;13315;48.274;-1.900;2022-11-30T08:46:01;13.90;75.50
25366;DHT22;13315;48.274;-1.900;2022-11-30T08:48:27;13.80;75.40
25366;DHT22;13315;48.274;-1.900;2022-11-30T08:50:53;13.80;75.40
25366;DHT22;13315;48.274;-1.900;2022-11-30T08:53:19;13.90;75.40
25366;DHT22;13315;48.274;-1.900;2022-11-30T08:55:57;13.90;75.40
25366;DHT22;13315;48.274;-1.900;2022-11-30T08:58:24;13.90;75.40
25366;DHT22;13315;48.274;-1.900;2022-11-30T09:00:50;13.80;75.30
25366;DHT22;13315;48.274;-1.900;2022-11-30T09:03:15;13.80;75.40
25366;DHT22;13315;48.274;-1.900;2022-11-30T09:05:41;13.80;75.30
25366;DHT22;13315;48.274;-1.900;2022-11-30T09:08:07;13.80;75.90
25366;DHT22;13315;48.274;-1.900;2022-11-30T09:10:33;13.80;75.40
25366;DHT22;13315;48.274;-1.900;2022-11-30T09:12:58;13.90;75.40
25366;DHT22;13315;48.274;-1.900;2022-11-30T09:15:24;13.90;75.40
25366;DHT22;13315;48.274;-1.900;2022-11-30T09:17:50;13.90;75.40
25366;DHT22;13315;48.274;-1.900;2022-11-30T09:20:16;13.90;75.30
25366;DHT22;13315;48.274;-1.900;2022-11-30T09:22:41;13.90;75.30
25366;DHT22;13315;48.274;-1.900;2022-11-30T09:25:08;13.90;75.20
25366;DHT22;13315;48.274;-1.900;2022-11-30T09:27:34;13.90;75.20
25366;DHT22;13315;48.274;-1.900;2022-11-30T09:30:00;13.90;75.20
25366;DHT22;13315;48.274;-1.900;2022-11-30T09:32:27;13.90;75.10
25366;DHT22;13315;48.274;-1.900;2022-11-30T09:34:53;13.90;75.20
25366;DHT22;13315;48.274;-1.900;2022-11-30T09:37:19;13.90;75.10
25366;DHT22;13315;48.274;-1.900;2022-11-30T09:39:45;13.90;75.10
25366;DHT22;13315;48.274;-1.900;2022-11-30T09:42:25;13.90;75.10
25366;DHT22;13315;48.274;-1.900;2022-11-30T09:45:05;13.90;75.10
25366;DHT22;13315;48.274;-1.900;2022-11-30T09:50:12;13.90;75.10
25366;DHT22;13315;48.274;-1.900;2022-11-30T09:52:45;13.90;75.20
25366;DHT22;13315;48.274;-1.900;2022-11-30T09:55:16;13.90;75.10
25366;DHT22;13315;48.274;-1.900;2022-11-30T09:57:46;13.90;75.10
25366;DHT22;13315;48.274;-1.900;2022-11-30T10:00:21;13.90;75.10
25366;DHT22;13315;48.274;-1.900;2022-11-30T10:02:52;13.90;75.10
25366;DHT22;13315;48.274;-1.900;2022-11-30T10:16:26;13.90;75.00
25366;DHT22;13315;48.274;-1.900;2022-11-30T10:22:05;13.90;75.00
25366;DHT22;13315;48.274;-1.900;2022-11-30T10:28:01;13.90;74.90
25366;DHT22;13315;48.274;-1.900;2022-11-30T10:30:33;13.90;74.90
25366;DHT22;13315;48.274;-1.900;2022-11-30T10:33:10;13.90;74.80
25366;DHT22;13315;48.274;-1.900;2022-11-30T10:35:48;14.00;74.80
25366;DHT22;13315;48.274;-1.900;2022-11-30T10:43:34;13.90;74.80
25366;DHT22;13315;48.274;-1.900;2022-11-30T10:46:04;13.90;74.80
25366;DHT22;13315;48.274;-1.900;2022-11-30T10:48:33;13.90;74.70
25366;DHT22;13315;48.274;-1.900;2022-11-30T10:51:02;13.90;74.80
25366;DHT22;13315;48.274;-1.900;2022-11-30T10:53:30;13.90;74.80
25366;DHT22;13315;48.274;-1.900;2022-11-30T11:01:09;14.00;74.70
25366;DHT22;13315;48.274;-1.900;2022-11-30T11:03:35;14.00;74.70
25366;DHT22;13315;48.274;-1.900;2022-11-30T11:06:11;14.00;74.90
25366;DHT22;13315;48.274;-1.900;2022-11-30T11:08:39;14.00;75.10
25366;DHT22;13315;48.274;-1.900;2022-11-30T11:11:34;14.00;75.20
25366;DHT22;13315;48.274;-1.900;2022-11-30T11:14:23;14.00;75.30
25366;DHT22;13315;48.274;-1.900;2022-11-30T11:17:05;14.00;75.40
25366;DHT22;13315;48.274;-1.900;2022-11-30T11:19:39;14.00;75.40
25366;DHT22;13315;48.274;-1.900;2022-11-30T11:22:13;14.00;75.60
25366;DHT22;13315;48.274;-1.900;2022-11-30T11:24:40;14.10;75.70
25366;DHT22;13315;48.274;-1.900;2022-11-30T11:27:09;14.00;75.80
25366;DHT22;13315;48.274;-1.900;2022-11-30T11:29:44;14.00;75.90
25366;DHT22;13315;48.274;-1.900;2022-11-30T11:34:42;14.00;76.00
25366;DHT22;13315;48.274;-1.900;2022-11-30T11:42:42;14.10;76.00
25366;DHT22;13315;48.274;-1.900;2022-11-30T11:45:21;14.10;76.00
25366;DHT22;13315;48.274;-1.900;2022-11-30T11:47:58;14.10;76.00
25366;DHT22;13315;48.274;-1.900;2022-11-30T11:50:35;14.10;76.00
25366;DHT22;13315;48.274;-1.900;2022-11-30T11:53:20;14.10;75.90
25366;DHT22;13315;48.274;-1.900;2022-11-30T11:56:01;14.10;75.90
25366;DHT22;13315;48.274;-1.900;2022-11-30T12:01:06;14.10;75.90
25366;DHT22;13315;48.274;-1.900;2022-11-30T12:03:49;14.10;75.80
25366;DHT22;13315;48.274;-1.900;2022-11-30T12:06:17;14.10;75.70
25366;DHT22;13315;48.274;-1.900;2022-11-30T12:08:54;14.10;75.70
25366;DHT22;13315;48.274;-1.900;2022-11-30T12:13:50;14.10;75.70
25366;DHT22;13315;48.274;-1.900;2022-11-30T12:19:16;14.10;75.60
25366;DHT22;13315;48.274;-1.900;2022-11-30T12:35:47;14.20;75.40
25366;DHT22;13315;48.274;-1.900;2022-11-30T12:41:29;14.20;75.40
25366;DHT22;13315;48.274;-1.900;2022-11-30T12:47:28;14.20;75.40
25366;DHT22;13315;48.274;-1.900;2022-11-30T12:50:41;14.20;75.50
25366;DHT22;13315;48.274;-1.900;2022-11-30T12:55:40;14.20;75.50
25366;DHT22;13315;48.274;-1.900;2022-11-30T13:06:32;14.20;75.50
25366;DHT22;13315;48.274;-1.900;2022-11-30T13:09:20;14.20;75.40
25366;DHT22;13315;48.274;-1.900;2022-11-30T13:11:51;14.20;75.40
25366;DHT22;13315;48.274;-1.900;2022-11-30T13:14:24;14.20;75.30
25366;DHT22;13315;48.274;-1.900;2022-11-30T13:17:04;14.20;75.30
25366;DHT22;13315;48.274;-1.900;2022-11-30T13:19:59;14.20;75.30
25366;DHT22;13315;48.274;-1.900;2022-11-30T13:25:32;14.20;75.20
25366;DHT22;13315;48.274;-1.900;2022-11-30T13:35:58;14.20;75.20
25366;DHT22;13315;48.274;-1.900;2022-11-30T13:38:24;14.20;75.20
25366;DHT22;13315;48.274;-1.900;2022-11-30T13:40:59;14.10;75.10
25366;DHT22;13315;48.274;-1.900;2022-11-30T13:43:28;14.10;75.10
25366;DHT22;13315;48.274;-1.900;2022-11-30T13:46:06;14.20;75.10
25366;DHT22;13315;48.274;-1.900;2022-11-30T13:48:40;14.20;75.10
25366;DHT22;13315;48.274;-1.900;2022-11-30T13:51:06;14.20;75.00
25366;DHT22;13315;48.274;-1.900;2022-11-30T13:53:34;14.20;75.10
25366;DHT22;13315;48.274;-1.900;2022-11-30T13:56:05;14.20;75.20
25366;DHT22;13315;48.274;-1.900;2022-11-30T13:58:33;14.20;75.10
25366;DHT22;13315;48.274;-1.900;2022-11-30T14:03:30;14.20;75.30
25366;DHT22;13315;48.274;-1.900;2022-11-30T14:05:58;14.20;75.30
25366;DHT22;13315;48.274;-1.900;2022-11-30T14:08:36;14.20;75.30
25366;DHT22;13315;48.274;-1.900;2022-11-30T14:11:37;14.20;75.30
25366;DHT22;13315;48.274;-1.900;2022-11-30T14:14:43;14.20;75.90
25366;DHT22;13315;48.274;-1.900;2022-11-30T14:17:33;14.20;75.40
25366;DHT22;13315;48.274;-1.900;2022-11-30T14:20:15;14.20;75.50
25366;DHT22;13315;48.274;-1.900;2022-11-30T14:22:43;14.20;75.50
25366;DHT22;13315;48.274;-1.900;2022-11-30T14:25:14;14.10;75.40
25366;DHT22;13315;48.274;-1.900;2022-11-30T14:27:41;14.10;75.40
25366;DHT22;13315;48.274;-1.900;2022-11-30T14:30:22;14.10;75.40
25366;DHT22;13315;48.274;-1.900;2022-11-30T14:32:56;14.10;75.40
25366;DHT22;13315;48.274;-1.900;2022-11-30T14:35:28;14.20;75.40
25366;DHT22;13315;48.274;-1.900;2022-11-30T14:37:57;14.10;75.40
25366;DHT22;13315;48.274;-1.900;2022-11-30T14:40:26;14.10;75.40
25366;DHT22;13315;48.274;-1.900;2022-11-30T14:43:00;14.20;75.30
25366;DHT22;13315;48.274;-1.900;2022-11-30T14:45:31;14.10;75.30
25366;DHT22;13315;48.274;-1.900;2022-11-30T14:48:10;14.20;75.40
25366;DHT22;13315;48.274;-1.900;2022-11-30T14:50:59;14.10;75.30
25366;DHT22;13315;48.274;-1.900;2022-11-30T14:53:39;14.20;75.30
25366;DHT22;13315;48.274;-1.900;2022-11-30T14:56:26;14.10;75.30
25366;DHT22;13315;48.274;-1.900;2022-11-30T15:01:46;14.20;75.30
25366;DHT22;13315;48.274;-1.900;2022-11-30T15:04:14;14.10;75.10
25366;DHT22;13315;48.274;-1.900;2022-11-30T15:06:42;14.10;75.10
25366;DHT22;13315;48.274;-1.900;2022-11-30T15:09:20;14.10;75.20
25366;DHT22;13315;48.274;-1.900;2022-11-30T15:11:49;14.10;75.30
25366;DHT22;13315;48.274;-1.900;2022-11-30T15:14:16;14.10;75.20
25366;DHT22;13315;48.274;-1.900;2022-11-30T15:16:50;14.10;75.30
25366;DHT22;13315;48.274;-1.900;2022-11-30T15:19:21;14.10;75.30
25366;DHT22;13315;48.274;-1.900;2022-11-30T15:21:48;14.10;75.30
25366;DHT22;13315;48.274;-1.900;2022-11-30T15:24:14;14.10;75.30
25366;DHT22;13315;48.274;-1.900;2022-11-30T15:26:55;14.10;75.20
25366;DHT22;13315;48.274;-1.900;2022-11-30T15:29:33;14.10;75.20
25366;DHT22;13315;48.274;-1.900;2022-11-30T15:32:02;14.10;75.20
25366;DHT22;13315;48.274;-1.900;2022-11-30T15:34:44;14.10;75.30
25366;DHT22;13315;48.274;-1.900;2022-11-30T15:37:12;14.10;75.30
25366;DHT22;13315;48.274;-1.900;2022-11-30T15:39:38;14.10;75.20
25366;DHT22;13315;48.274;-1.900;2022-11-30T15:42:19;14.10;75.20
25366;DHT22;13315;48.274;-1.900;2022-11-30T15:44:48;14.00;75.30
25366;DHT22;13315;48.274;-1.900;2022-11-30T15:47:26;14.00;75.40
25366;DHT22;13315;48.274;-1.900;2022-11-30T15:49:56;14.00;75.40
25366;DHT22;13315;48.274;-1.900;2022-11-30T15:52:29;14.00;75.40
25366;DHT22;13315;48.274;-1.900;2022-11-30T15:54:57;14.00;75.40
25366;DHT22;13315;48.274;-1.900;2022-11-30T15:57:56;14.00;75.40
25366;DHT22;13315;48.274;-1.900;2022-11-30T16:00:23;14.00;75.40
25366;DHT22;13315;48.274;-1.900;2022-11-30T16:03:09;14.00;75.40
25366;DHT22;13315;48.274;-1.900;2022-11-30T16:05:39;14.00;75.40
25366;DHT22;13315;48.274;-1.900;2022-11-30T16:08:17;13.90;75.40
25366;DHT22;13315;48.274;-1.900;2022-11-30T16:10:43;13.90;75.50
25366;DHT22;13315;48.274;-1.900;2022-11-30T16:13:14;13.90;75.50
25366;DHT22;13315;48.274;-1.900;2022-11-30T16:15:44;13.90;75.40
25366;DHT22;13315;48.274;-1.900;2022-11-30T16:18:16;13.90;75.50
25366;DHT22;13315;48.274;-1.900;2022-11-30T16:20:45;13.90;75.50
25366;DHT22;13315;48.274;-1.900;2022-11-30T16:23:12;13.90;75.60
25366;DHT22;13315;48.274;-1.900;2022-11-30T16:25:41;13.90;75.60
25366;DHT22;13315;48.274;-1.900;2022-11-30T16:28:12;13.90;75.60
25366;DHT22;13315;48.274;-1.900;2022-11-30T16:30:39;13.90;75.50
25366;DHT22;13315;48.274;-1.900;2022-11-30T16:33:14;13.90;75.70
25366;DHT22;13315;48.274;-1.900;2022-11-30T16:36:28;13.80;75.60
25366;DHT22;13315;48.274;-1.900;2022-11-30T16:38:30;13.80;75.60
25366;DHT22;13315;48.274;-1.900;2022-11-30T16:43:41;13.80;75.50
25366;DHT22;13315;48.274;-1.900;2022-11-30T16:46:19;13.80;75.70
25366;DHT22;13315;48.274;-1.900;2022-11-30T16:48:45;13.80;75.60
25366;DHT22;13315;48.274;-1.900;2022-11-30T16:51:26;13.80;75.60
25366;DHT22;13315;48.274;-1.900;2022-11-30T16:53:53;13.80;75.60
25366;DHT22;13315;48.274;-1.900;2022-11-30T16:56:19;13.80;75.70
25366;DHT22;13315;48.274;-1.900;2022-11-30T16:58:45;13.80;75.60
25366;DHT22;13315;48.274;-1.900;2022-11-30T17:01:34;13.80;75.50
25366;DHT22;13315;48.274;-1.900;2022-11-30T17:04:09;13.80;75.70
25366;DHT22;13315;48.274;-1.900;2022-11-30T17:06:36;13.70;75.60
25366;DHT22;13315;48.274;-1.900;2022-11-30T17:09:02;13.80;75.70
25366;DHT22;13315;48.274;-1.900;2022-11-30T17:11:31;13.70;75.60
25366;DHT22;13315;48.274;-1.900;2022-11-30T17:13:57;13.80;75.70
25366;DHT22;13315;48.274;-1.900;2022-11-30T17:16:23;13.80;75.70
25366;DHT22;13315;48.274;-1.900;2022-11-30T17:18:49;13.70;75.60
25366;DHT22;13315;48.274;-1.900;2022-11-30T17:21:17;13.70;75.50
25366;DHT22;13315;48.274;-1.900;2022-11-30T17:23:44;13.70;75.70
25366;DHT22;13315;48.274;-1.900;2022-11-30T17:26:11;13.70;75.70
25366;DHT22;13315;48.274;-1.900;2022-11-30T17:28:37;13.70;75.80